White Earth, North Dakota
Current Conditions -  °F | °C
As of 12:35 AM on Monday 24 Nov 2014 (Local Time) from KD60 Reporting Station
Clear Clear  
Wind Chill: -5°   Ceiling: Unl
Heat Index:   Visibility: 10mi
Dew Point:   Wind: 7mph
Humidity: 100%   Direction: 330°NNW
Pressure: 29.8"   Gusts: NA
Location:  48.38°N, 102.77°W
Report Text: KD60 240635Z AUTO 33006KT 10SM CLR M14/M14 A2980 RMK AO2
Loading
Personal Weather Stations






























Interactive Weather Map New forecast layout! Learn more

10-Day Weather Forecast

Advertisements
Track Severe Weather on mobile